createdAt,value
2018-10-12T00:02:49.822Z,100687.97
2018-10-12T00:07:54.393Z,100691.41
2018-10-12T00:12:58.014Z,100706.33
2018-10-12T00:18:01.795Z,100702.98
2018-10-12T00:23:05.360Z,100706.81
2018-10-12T00:28:08.883Z,100707.56
2018-10-12T00:33:12.428Z,100709.73
2018-10-12T00:38:15.986Z,100718.58
2018-10-12T00:43:19.514Z,100728.69
2018-10-12T00:48:23.468Z,100730.20
2018-10-12T00:53:27.039Z,100737.01
2018-10-12T00:58:30.600Z,100737.50
2018-10-12T01:03:34.183Z,100736.31
2018-10-12T01:08:37.749Z,100730.75
2018-10-12T01:13:41.411Z,100734.23
2018-10-12T01:18:45.091Z,100734.24
2018-10-12T01:23:48.712Z,100735.17
2018-10-12T01:28:56.559Z,100731.69
2018-10-12T01:34:00.211Z,100721.06
2018-10-12T01:39:05.008Z,100722.90
2018-10-12T01:44:08.683Z,100710.63
2018-10-12T01:49:12.305Z,100706.62
2018-10-12T01:54:15.844Z,100706.78
2018-10-12T01:59:19.423Z,100701.27
2018-10-12T02:04:23.108Z,100716.67
2018-10-12T02:09:26.658Z,100731.01
2018-10-12T02:14:31.082Z,100738.02
2018-10-12T02:19:34.717Z,100738.87
2018-10-12T02:24:38.275Z,100740.00
2018-10-12T02:29:41.824Z,100741.13
2018-10-12T02:34:51.165Z,100728.68
2018-10-12T02:39:54.736Z,100744.59
2018-10-12T02:44:58.295Z,100746.91
2018-10-12T02:50:02.454Z,100753.38
2018-10-12T02:55:06.266Z,100751.34
2018-10-12T03:00:12.454Z,100754.55
2018-10-12T03:05:16.126Z,100757.31
2018-10-12T03:10:20.225Z,100762.66
2018-10-12T03:15:23.919Z,100765.46
2018-10-12T03:20:27.475Z,100778.11
2018-10-12T03:25:31.003Z,100768.81
2018-10-12T03:30:34.630Z,100768.81
2018-10-12T03:35:38.360Z,100791.55
2018-10-12T03:40:42.178Z,100805.12
2018-10-12T03:45:45.731Z,100813.48
2018-10-12T03:50:49.374Z,100809.78
2018-10-12T03:55:52.911Z,100821.03
2018-10-12T04:00:56.744Z,100837.61
2018-10-12T04:06:00.353Z,100839.72
2018-10-12T04:11:03.970Z,100843.33
2018-10-12T04:16:07.637Z,100857.61
2018-10-12T04:21:11.206Z,100856.43
2018-10-12T04:26:14.815Z,100869.98
2018-10-12T04:31:18.587Z,100868.58
2018-10-12T04:36:22.139Z,100874.90
2018-10-12T04:41:25.719Z,100875.94
2018-10-12T04:46:36.157Z,100881.63
2018-10-12T04:51:41.917Z,100891.78
2018-10-12T04:56:46.025Z,100891.56
2018-10-12T05:01:49.713Z,100921.90
2018-10-12T05:06:53.367Z,100923.21
2018-10-12T05:11:57.044Z,100914.59
2018-10-12T05:17:00.833Z,100908.66
2018-10-12T05:22:04.512Z,100920.17
2018-10-12T05:27:08.148Z,100933.52
2018-10-12T05:32:11.674Z,100938.42
2018-10-12T05:37:15.227Z,100934.53
2018-10-12T05:42:18.796Z,100935.48
2018-10-12T05:47:22.344Z,100946.69
2018-10-12T05:52:26.022Z,100951.02
2018-10-12T05:57:29.954Z,100965.11
2018-10-12T06:02:33.549Z,100980.80
2018-10-12T06:07:37.182Z,101003.19
2018-10-12T06:12:40.811Z,100999.08
2018-10-12T06:17:44.505Z,101004.99
2018-10-12T06:22:48.066Z,101018.44
2018-10-12T06:27:51.668Z,101025.55
2018-10-12T06:32:55.325Z,101036.52
2018-10-12T06:37:59.833Z,101053.64
2018-10-12T06:43:03.769Z,101066.00
2018-10-12T06:48:07.338Z,101085.19
2018-10-12T06:53:11.595Z,101098.23
2018-10-12T06:58:15.368Z,101096.51
2018-10-12T07:03:19.054Z,101102.92
2018-10-12T07:08:22.950Z,101116.50
2018-10-12T07:13:26.498Z,101122.19
2018-10-12T07:18:30.478Z,101126.88
2018-10-12T07:23:34.117Z,101134.25
2018-10-12T07:28:41.829Z,101139.55
2018-10-12T07:33:45.819Z,101140.59
2018-10-12T07:38:49.352Z,101142.50
2018-10-12T07:43:52.916Z,101142.20
2018-10-12T07:48:56.526Z,101148.19
2018-10-12T07:54:00.079Z,101141.77
2018-10-12T07:59:03.611Z,101147.50
2018-10-12T08:04:07.100Z,101155.64
2018-10-12T08:09:10.656Z,101155.41
2018-10-12T08:14:14.336Z,101161.45
2018-10-12T08:19:17.953Z,101170.88
2018-10-12T08:24:21.498Z,101170.20
2018-10-12T08:29:26.309Z,101174.65
2018-10-12T08:34:30.097Z,101160.45
2018-10-12T08:39:34.062Z,101169.92
2018-10-12T08:44:37.634Z,101188.27
2018-10-12T08:49:41.358Z,101211.32
2018-10-12T08:54:44.900Z,101207.89
2018-10-12T08:59:48.442Z,101219.64
2018-10-12T09:04:52.016Z,101220.60
2018-10-12T09:09:55.662Z,101223.23
2018-10-12T09:14:59.139Z,101226.20
2018-10-12T09:20:11.695Z,101229.60
2018-10-12T09:25:15.312Z,101215.00
2018-10-12T09:30:29.655Z,101218.36
2018-10-12T09:35:33.007Z,101222.63
2018-10-12T09:40:36.841Z,101225.48
2018-10-12T09:45:40.496Z,101228.05
2018-10-12T09:50:44.253Z,101239.69
2018-10-12T09:55:47.973Z,101238.05
2018-10-12T10:00:56.733Z,101236.02
2018-10-12T10:06:00.303Z,101228.37
2018-10-12T10:11:03.856Z,101234.29
2018-10-12T10:16:07.438Z,101230.55
2018-10-12T10:21:10.981Z,101224.28
2018-10-12T10:26:14.628Z,101224.67
2018-10-12T10:31:18.216Z,101214.00
2018-10-12T10:36:21.998Z,101219.31
2018-10-12T10:41:25.470Z,101205.52
2018-10-12T10:46:29.091Z,101207.50
2018-10-12T10:51:32.852Z,101206.63
2018-10-12T10:56:36.416Z,101200.91
2018-10-12T11:01:40.387Z,101195.37
2018-10-12T11:06:44.041Z,101191.03
2018-10-12T11:11:47.688Z,101188.02
2018-10-12T11:16:51.863Z,101177.31
2018-10-12T11:21:55.520Z,101171.72
2018-10-12T11:26:59.297Z,101158.66
2018-10-12T11:32:02.882Z,101171.65
2018-10-12T11:37:06.454Z,101172.03
2018-10-12T11:42:10.096Z,101173.57
2018-10-12T11:47:13.896Z,101170.59
2018-10-12T11:52:17.660Z,101177.95
2018-10-12T11:57:21.685Z,101174.17
2018-10-12T12:02:25.784Z,101173.11
2018-10-12T12:07:29.365Z,101169.31
2018-10-12T12:12:34.626Z,101164.09
2018-10-12T12:17:41.644Z,101168.73
2018-10-12T12:22:45.215Z,101174.95
2018-10-12T12:27:49.535Z,101183.02
2018-10-12T12:32:53.163Z,101179.50
2018-10-12T12:37:56.804Z,101165.52
2018-10-12T12:43:00.433Z,101175.87
2018-10-12T12:48:04.173Z,101175.98
2018-10-12T12:53:09.055Z,101166.17
2018-10-12T12:58:12.725Z,101156.36
2018-10-12T13:03:16.406Z,101161.70
2018-10-12T13:08:20.276Z,101160.25
2018-10-12T13:13:24.200Z,101169.42
2018-10-12T13:18:27.873Z,101169.31
2018-10-12T13:23:32.238Z,101172.14
2018-10-12T13:28:35.858Z,101175.39
2018-10-12T13:33:39.438Z,101178.06
2018-10-12T13:38:43.027Z,101182.64
2018-10-12T13:43:46.606Z,101182.06
2018-10-12T13:48:50.171Z,101180.19
2018-10-12T13:53:54.201Z,101178.00
2018-10-12T13:58:57.766Z,101190.65
2018-10-12T14:04:01.466Z,101181.48
2018-10-12T14:09:06.828Z,101177.90
2018-10-12T14:14:10.445Z,101176.09
2018-10-12T14:19:14.149Z,101177.48
2018-10-12T14:24:17.500Z,101178.06
2018-10-12T14:29:21.118Z,101177.05
2018-10-12T14:34:24.708Z,101176.16
2018-10-12T14:39:28.326Z,101173.79
2018-10-12T14:44:31.874Z,101175.13
2018-10-12T14:49:35.438Z,101176.16
2018-10-12T14:54:38.995Z,101175.30
2018-10-12T14:59:42.629Z,101169.31
2018-10-12T15:04:46.297Z,101169.31
2018-10-12T15:09:49.885Z,101163.13
2018-10-12T15:15:04.687Z,101165.11
2018-10-12T15:20:08.256Z,101164.73
2018-10-12T15:25:11.833Z,101163.39
2018-10-12T15:30:27.160Z,101167.39
2018-10-12T15:35:30.755Z,101166.97
2018-10-12T15:40:34.316Z,101171.66
2018-10-12T15:45:37.927Z,101166.14
2018-10-12T15:50:41.572Z,101167.69
2018-10-12T15:55:45.166Z,101176.80
2018-10-12T16:00:48.742Z,101166.09
2018-10-12T16:05:53.850Z,101164.53
2018-10-12T16:10:57.466Z,101166.29
2018-10-12T16:16:01.143Z,101175.84
2018-10-12T16:21:04.714Z,101177.94
2018-10-12T16:26:16.528Z,101177.38
2018-10-12T16:31:20.064Z,101173.33
2018-10-12T16:36:23.757Z,101181.80
2018-10-12T16:41:27.353Z,101186.72
2018-10-12T16:46:30.910Z,101191.57
2018-10-12T16:51:34.470Z,101199.12
2018-10-12T16:56:38.057Z,101196.38
2018-10-12T17:01:41.599Z,101208.03
2018-10-12T17:06:45.211Z,101217.71
2018-10-12T17:11:48.795Z,101225.80
2018-10-12T17:16:52.402Z,101229.32
2018-10-12T17:21:55.927Z,101234.97
2018-10-12T17:26:59.507Z,101232.88
2018-10-12T17:32:03.166Z,101234.11
2018-10-12T17:37:06.948Z,101235.81
2018-10-12T17:42:15.802Z,101238.52
2018-10-12T17:47:19.360Z,101236.28
2018-10-12T17:52:23.190Z,101244.86
2018-10-12T17:57:27.721Z,101253.33
2018-10-12T18:02:31.296Z,101251.49
2018-10-12T18:07:35.030Z,101257.02
2018-10-12T18:12:38.689Z,101257.21
2018-10-12T18:17:42.602Z,101256.36
2018-10-12T18:22:46.300Z,101258.38
2018-10-12T18:27:50.027Z,101254.95
2018-10-12T18:32:53.568Z,101255.48
2018-10-12T18:37:57.381Z,101253.94
2018-10-12T18:43:03.326Z,101253.94
2018-10-12T18:48:08.134Z,101251.61
2018-10-12T18:53:11.830Z,101261.98
2018-10-12T18:58:15.382Z,101270.33
2018-10-12T19:03:18.939Z,101271.89
2018-10-12T19:08:22.743Z,101271.67
2018-10-12T19:13:26.318Z,101273.98
2018-10-12T19:18:29.865Z,101269.36
2018-10-12T19:23:36.789Z,101272.22
2018-10-12T19:28:40.324Z,101268.00
2018-10-12T19:33:43.993Z,101276.56
2018-10-12T19:38:47.535Z,101283.42
2018-10-12T19:43:51.086Z,101286.36
2018-10-12T19:48:54.874Z,101291.91
2018-10-12T19:53:58.408Z,101297.20
2018-10-12T19:59:02.153Z,101293.14
2018-10-12T20:04:05.771Z,101295.48
2018-10-12T20:09:11.142Z,101292.22
2018-10-12T20:14:14.734Z,101303.75
2018-10-12T20:19:18.324Z,101303.58
2018-10-12T20:24:21.903Z,101307.40
2018-10-12T20:29:25.448Z,101307.78
2018-10-12T20:34:28.973Z,101314.11
2018-10-12T20:39:32.658Z,101311.77
2018-10-12T20:44:36.197Z,101315.62
2018-10-12T20:49:39.739Z,101321.27
2018-10-12T20:54:43.282Z,101326.88
2018-10-12T20:59:46.795Z,101321.77
2018-10-12T21:04:50.330Z,101321.80
2018-10-12T21:09:54.098Z,101323.91
2018-10-12T21:14:57.761Z,101325.67
2018-10-12T21:20:01.802Z,101326.54
2018-10-12T21:25:05.421Z,101325.45
2018-10-12T21:30:10.467Z,101328.13
2018-10-12T21:35:14.075Z,101327.66
2018-10-12T21:40:17.693Z,101329.59
2018-10-12T21:45:21.558Z,101335.15
2018-10-12T21:50:25.340Z,101332.16
2018-10-12T21:55:28.829Z,101330.66
2018-10-12T22:00:37.147Z,101325.94
2018-10-12T22:05:40.891Z,101324.96
2018-10-12T22:10:44.671Z,101330.62
2018-10-12T22:15:48.234Z,101323.49
2018-10-12T22:20:52.102Z,101321.98
2018-10-12T22:25:55.886Z,101317.17
2018-10-12T22:30:59.402Z,101318.03
2018-10-12T22:36:03.468Z,101309.85
2018-10-12T22:41:07.083Z,101313.39
2018-10-12T22:46:10.808Z,101310.80
2018-10-12T22:51:14.436Z,101303.47
2018-10-12T22:56:17.970Z,101298.70
2018-10-12T23:01:21.619Z,101292.33
2018-10-12T23:06:25.378Z,101289.39
2018-10-12T23:11:29.204Z,101294.55
2018-10-12T23:16:32.731Z,101291.27
2018-10-12T23:21:36.354Z,101291.10
2018-10-12T23:26:40.188Z,101290.39
2018-10-12T23:31:43.741Z,101287.63
2018-10-12T23:36:47.295Z,101291.02
2018-10-12T23:41:50.882Z,101286.70
2018-10-12T23:46:54.593Z,101285.75
2018-10-12T23:51:58.123Z,101288.53
2018-10-12T23:57:01.778Z,101289.08
